createdAt,value
2022-11-04T00:01:33.616Z,99.90
2022-11-04T00:04:00.873Z,99.90
2022-11-04T00:06:28.445Z,99.90
2022-11-04T00:08:57.938Z,99.90
2022-11-04T00:11:45.137Z,99.90
2022-11-04T00:14:13.281Z,99.90
2022-11-04T00:16:59.755Z,99.90
2022-11-04T00:19:28.129Z,99.90
2022-11-04T00:22:14.142Z,99.90
2022-11-04T00:24:59.799Z,99.90
2022-11-04T00:27:45.187Z,99.90
2022-11-04T00:30:12.414Z,99.90
2022-11-04T00:32:58.173Z,99.90
2022-11-04T00:35:25.225Z,99.90
2022-11-04T00:37:52.271Z,99.90
2022-11-04T00:40:19.405Z,99.90
2022-11-04T00:42:46.663Z,99.90
2022-11-04T00:45:13.699Z,99.90
2022-11-04T00:47:40.764Z,99.90
2022-11-04T00:50:08.779Z,99.90
2022-11-04T00:52:35.885Z,99.90
2022-11-04T00:55:03.205Z,99.90
2022-11-04T00:57:30.223Z,99.90
2022-11-04T00:59:57.227Z,99.90
2022-11-04T01:02:24.452Z,99.90
2022-11-04T01:04:51.632Z,99.90
2022-11-04T01:07:18.687Z,99.90
2022-11-04T01:09:45.684Z,99.90
2022-11-04T01:12:12.742Z,99.90
2022-11-04T01:14:39.716Z,99.90
2022-11-04T01:17:06.805Z,99.90
2022-11-04T01:19:33.881Z,99.90
2022-11-04T01:22:00.864Z,99.90
2022-11-04T01:24:28.041Z,99.90
2022-11-04T01:26:55.069Z,99.90
2022-11-04T01:29:22.120Z,99.90
2022-11-04T01:34:16.531Z,99.90
2022-11-04T01:36:43.623Z,99.90
2022-11-04T01:39:12.300Z,99.90
2022-11-04T01:41:40.064Z,99.90
2022-11-04T01:44:44.682Z,99.90
2022-11-04T01:47:43.682Z,99.90
2022-11-04T01:50:20.084Z,99.90
2022-11-04T01:52:55.312Z,99.90
2022-11-04T01:55:31.070Z,99.90
2022-11-04T01:58:04.354Z,99.90
2022-11-04T02:00:33.344Z,99.90
2022-11-04T02:03:08.065Z,99.90
2022-11-04T02:05:35.868Z,99.90
2022-11-04T02:08:05.963Z,99.90
2022-11-04T02:10:33.500Z,99.90
2022-11-04T02:13:03.234Z,99.90
2022-11-04T02:15:49.225Z,99.90
2022-11-04T02:18:45.089Z,99.90
2022-11-04T02:21:44.611Z,99.90
2022-11-04T02:24:56.877Z,99.90
2022-11-04T02:28:12.903Z,99.90
2022-11-04T02:30:51.623Z,99.90
2022-11-04T02:33:26.841Z,99.90
2022-11-04T02:36:23.150Z,99.90
2022-11-04T02:39:00.791Z,99.90
2022-11-04T02:41:59.080Z,99.90
2022-11-04T02:44:38.370Z,99.90
2022-11-04T02:47:16.709Z,99.90
2022-11-04T02:50:02.379Z,99.90
2022-11-04T02:55:57.576Z,99.90
2022-11-04T02:58:50.266Z,99.90
2022-11-04T03:01:19.661Z,99.90
2022-11-04T03:03:49.887Z,99.90
2022-11-04T03:06:22.957Z,99.90
2022-11-04T03:08:52.941Z,99.90
2022-11-04T03:11:24.874Z,99.90
2022-11-04T03:14:04.938Z,99.90
2022-11-04T03:17:08.762Z,99.90
2022-11-04T03:19:59.507Z,99.90
2022-11-04T03:22:29.792Z,99.90
2022-11-04T03:24:57.843Z,99.90
2022-11-04T03:27:31.809Z,99.90
2022-11-04T03:30:23.167Z,99.90
2022-11-04T03:33:34.778Z,99.90
2022-11-04T03:36:03.932Z,99.90
2022-11-04T03:38:31.151Z,99.90
2022-11-04T03:41:01.009Z,99.90
2022-11-04T03:43:29.277Z,99.90
2022-11-04T03:45:56.560Z,99.90
2022-11-04T03:48:24.190Z,99.90
2022-11-04T03:50:51.873Z,99.90
2022-11-04T03:53:23.934Z,99.90
2022-11-04T03:56:30.015Z,99.90
2022-11-04T03:59:36.059Z,99.90
2022-11-04T04:02:20.537Z,99.90
2022-11-04T04:05:25.533Z,99.90
2022-11-04T04:08:19.128Z,99.90
2022-11-04T04:11:23.871Z,99.90
2022-11-04T04:14:02.027Z,99.90
2022-11-04T04:16:42.466Z,99.90
2022-11-04T04:19:14.467Z,99.90
2022-11-04T04:21:53.016Z,99.90
2022-11-04T04:24:43.603Z,99.90
2022-11-04T04:27:30.838Z,99.90
2022-11-04T04:30:07.303Z,99.90
2022-11-04T04:32:59.736Z,99.90
2022-11-04T04:35:42.817Z,99.90
2022-11-04T04:38:50.571Z,99.90
2022-11-04T04:41:42.046Z,99.90
2022-11-04T04:44:40.525Z,99.90
2022-11-04T04:47:08.965Z,99.90
2022-11-04T04:49:35.951Z,99.90
2022-11-04T04:52:08.344Z,99.90
2022-11-04T04:54:35.421Z,99.90
2022-11-04T04:57:02.389Z,99.90
2022-11-04T04:59:29.389Z,99.90
2022-11-04T05:01:56.496Z,99.90
2022-11-04T05:04:23.622Z,99.90
2022-11-04T05:06:50.722Z,99.90
2022-11-04T05:09:17.779Z,99.90
2022-11-04T05:11:44.765Z,99.90
2022-11-04T05:14:11.787Z,99.90
2022-11-04T05:16:40.963Z,99.90
2022-11-04T05:19:08.157Z,99.90
2022-11-04T05:21:35.135Z,99.90
2022-11-04T05:24:02.275Z,99.90
2022-11-04T05:26:29.354Z,99.90
2022-11-04T05:28:56.393Z,99.90
2022-11-04T05:31:23.477Z,99.90
2022-11-04T05:33:50.530Z,99.90
2022-11-04T05:36:17.772Z,99.90
2022-11-04T05:38:50.317Z,99.90
2022-11-04T05:41:26.082Z,99.90
2022-11-04T05:44:11.620Z,99.90
2022-11-04T05:46:38.652Z,99.90
2022-11-04T05:49:05.725Z,99.90
2022-11-04T05:51:33.304Z,99.90
2022-11-04T05:54:00.960Z,99.90
2022-11-04T05:56:27.979Z,99.90
2022-11-04T05:58:55.375Z,99.90
2022-11-04T06:01:37.191Z,99.90
2022-11-04T06:04:06.221Z,99.90
2022-11-04T06:06:35.511Z,99.90
2022-11-04T06:09:03.581Z,99.90
2022-11-04T06:11:31.576Z,99.90
2022-11-04T06:13:58.864Z,99.90
2022-11-04T06:16:26.119Z,99.90
2022-11-04T06:18:53.966Z,99.90
2022-11-04T06:21:29.334Z,99.90
2022-11-04T06:23:57.920Z,99.90
2022-11-04T06:26:28.181Z,99.90
2022-11-04T06:28:55.838Z,99.90
2022-11-04T06:31:23.024Z,99.90
2022-11-04T06:33:49.998Z,99.90
2022-11-04T06:36:17.682Z,99.90
2022-11-04T06:38:44.778Z,99.90
2022-11-04T06:41:16.426Z,99.90
2022-11-04T06:43:43.480Z,99.90
2022-11-04T06:46:36.222Z,99.90
2022-11-04T06:49:05.213Z,99.90
2022-11-04T06:51:33.856Z,99.90
2022-11-04T06:54:00.903Z,99.90
2022-11-04T06:56:28.135Z,99.90
2022-11-04T06:58:56.034Z,99.90
2022-11-04T07:01:25.700Z,99.90
2022-11-04T07:03:55.885Z,99.90
2022-11-04T07:06:23.391Z,99.90
2022-11-04T07:08:52.531Z,99.90
2022-11-04T07:11:21.977Z,99.90
2022-11-04T07:13:49.681Z,99.90
2022-11-04T07:16:18.187Z,99.90
2022-11-04T07:18:45.883Z,99.90
2022-11-04T07:21:13.213Z,99.90
2022-11-04T07:23:40.408Z,99.90
2022-11-04T07:26:09.151Z,99.90
2022-11-04T07:28:36.577Z,99.90
2022-11-04T07:31:05.981Z,99.90
2022-11-04T07:33:33.941Z,99.90
2022-11-04T07:36:10.619Z,99.90
2022-11-04T07:38:37.778Z,99.90
2022-11-04T07:41:05.356Z,99.90
2022-11-04T07:43:32.481Z,99.90
2022-11-04T07:46:08.612Z,99.90
2022-11-04T07:48:36.951Z,99.90
2022-11-04T07:51:06.287Z,99.90
2022-11-04T07:53:33.579Z,99.90
2022-11-04T07:56:04.583Z,99.90
2022-11-04T07:58:31.961Z,99.90
2022-11-04T08:01:01.177Z,99.90
2022-11-04T08:03:28.362Z,99.90
2022-11-04T08:06:03.766Z,99.90
2022-11-04T08:08:31.076Z,99.90
2022-11-04T08:11:00.828Z,99.90
2022-11-04T08:13:29.513Z,99.90
2022-11-04T08:15:57.297Z,99.90
2022-11-04T08:18:24.353Z,99.90
2022-11-04T08:20:52.550Z,99.90
2022-11-04T08:23:20.119Z,99.90
2022-11-04T08:25:47.667Z,99.90
2022-11-04T08:28:17.857Z,99.90
2022-11-04T08:31:15.869Z,99.90
2022-11-04T08:33:43.369Z,99.90
2022-11-04T08:36:32.721Z,99.90
2022-11-04T08:38:59.759Z,99.90
2022-11-04T08:41:29.453Z,99.90
2022-11-04T08:44:00.893Z,99.90
2022-11-04T08:46:29.425Z,99.90
2022-11-04T08:48:56.509Z,99.90
2022-11-04T08:51:25.722Z,99.90
2022-11-04T08:53:53.026Z,99.90
2022-11-04T08:56:29.290Z,99.90
2022-11-04T08:59:02.119Z,99.90
2022-11-04T09:01:35.633Z,99.90
2022-11-04T09:04:04.835Z,99.90
2022-11-04T09:06:34.867Z,99.90
2022-11-04T09:09:05.060Z,99.90
2022-11-04T09:11:34.561Z,99.90
2022-11-04T09:14:02.515Z,99.90
2022-11-04T09:16:31.304Z,99.90
2022-11-04T09:19:00.214Z,99.90
2022-11-04T09:21:28.113Z,99.90
2022-11-04T09:23:55.569Z,99.90
2022-11-04T09:26:23.791Z,99.90
2022-11-04T09:28:55.690Z,99.90
2022-11-04T09:31:23.912Z,99.90
2022-11-04T09:33:51.290Z,99.90
2022-11-04T09:36:18.469Z,99.90
2022-11-04T09:38:45.466Z,99.90
2022-11-04T09:41:42.560Z,99.90
2022-11-04T09:45:19.489Z,99.90
2022-11-04T09:47:39.694Z,99.90
2022-11-04T09:50:12.201Z,99.90
2022-11-04T09:52:44.885Z,99.90
2022-11-04T09:55:24.772Z,98.30
2022-11-04T09:57:56.389Z,99.90
2022-11-04T10:00:23.470Z,99.90
2022-11-04T10:03:37.366Z,99.90
2022-11-04T10:06:44.429Z,99.90
2022-11-04T10:09:45.150Z,99.90
2022-11-04T10:13:02.288Z,99.90
2022-11-04T10:15:53.774Z,99.90
2022-11-04T10:19:06.144Z,99.90
2022-11-04T10:22:03.522Z,99.90
2022-11-04T10:25:08.184Z,99.90
2022-11-04T10:27:38.627Z,99.90
2022-11-04T10:30:17.982Z,99.90
2022-11-04T10:33:11.854Z,99.90
2022-11-04T10:35:45.400Z,99.90
2022-11-04T10:38:26.055Z,99.90
2022-11-04T10:40:54.612Z,99.90
2022-11-04T10:43:35.695Z,99.90
2022-11-04T10:46:47.887Z,99.90
2022-11-04T10:50:21.969Z,99.90
2022-11-04T10:52:41.938Z,99.90
2022-11-04T10:55:38.663Z,99.90
2022-11-04T10:58:16.386Z,98.50
2022-11-04T11:00:43.616Z,99.30
2022-11-04T11:03:34.901Z,99.90
2022-11-04T11:06:26.887Z,99.50
2022-11-04T11:09:15.453Z,99.40
2022-11-04T11:11:49.090Z,99.30
2022-11-04T11:14:34.794Z,98.00
2022-11-04T11:17:26.295Z,99.90
2022-11-04T11:20:08.355Z,99.90
2022-11-04T11:22:41.470Z,99.90
2022-11-04T11:25:47.051Z,99.90
2022-11-04T11:28:23.803Z,99.90
2022-11-04T11:31:01.236Z,99.00
2022-11-04T11:33:33.681Z,98.50
2022-11-04T11:36:21.107Z,98.90
2022-11-04T11:39:22.116Z,99.10
2022-11-04T11:42:07.771Z,98.20
2022-11-04T11:44:40.336Z,99.90
2022-11-04T11:47:22.141Z,99.90
2022-11-04T11:50:17.021Z,99.70
2022-11-04T11:52:48.940Z,99.90
2022-11-04T11:55:37.090Z,96.70
2022-11-04T12:01:50.927Z,95.50
2022-11-04T12:11:14.177Z,93.10
2022-11-04T12:13:47.952Z,96.20
2022-11-04T12:16:52.106Z,97.30
2022-11-04T12:19:37.970Z,94.50
2022-11-04T12:22:22.570Z,95.40
2022-11-04T12:25:31.981Z,96.80
2022-11-04T12:28:26.443Z,95.20
2022-11-04T12:31:19.299Z,96.30
2022-11-04T12:34:11.715Z,99.30
2022-11-04T12:37:14.424Z,98.20
2022-11-04T12:40:07.613Z,96.70
2022-11-04T12:43:22.357Z,95.90
2022-11-04T12:46:24.707Z,96.30
2022-11-04T12:49:20.288Z,95.60
2022-11-04T12:52:26.456Z,93.50
2022-11-04T12:55:43.588Z,95.80
2022-11-04T12:58:50.035Z,95.90
2022-11-04T13:01:31.245Z,95.70
2022-11-04T13:04:12.310Z,95.10
2022-11-04T13:25:48.624Z,58.60
2022-11-04T13:31:27.529Z,51.80
2022-11-04T13:34:20.432Z,54.50
2022-11-04T13:37:17.964Z,62.90
2022-11-04T13:40:17.206Z,75.40
2022-11-04T13:43:39.288Z,86.10
2022-11-04T13:46:31.091Z,89.60
2022-11-04T13:49:05.850Z,92.40
2022-11-04T13:51:47.663Z,91.70
2022-11-04T13:54:30.268Z,92.00
2022-11-04T13:57:31.152Z,94.50
2022-11-04T14:00:34.695Z,92.80
2022-11-04T14:03:42.149Z,94.20
2022-11-04T14:06:09.305Z,95.40
2022-11-04T14:08:36.265Z,93.60
2022-11-04T14:11:11.387Z,93.40
2022-11-04T14:13:45.842Z,91.80
2022-11-04T14:16:40.359Z,94.00
2022-11-04T14:19:44.664Z,95.70
2022-11-04T14:22:16.297Z,94.50
2022-11-04T14:24:44.356Z,98.40
2022-11-04T14:27:27.335Z,96.50
2022-11-04T14:29:55.209Z,99.90
2022-11-04T14:32:33.995Z,99.90
2022-11-04T14:35:07.048Z,99.90
2022-11-04T14:37:35.783Z,99.90
2022-11-04T14:40:06.096Z,99.90
2022-11-04T14:43:18.019Z,99.90
2022-11-04T14:45:45.091Z,99.90
2022-11-04T14:48:20.350Z,99.90
2022-11-04T14:50:51.733Z,99.90
2022-11-04T14:53:47.763Z,99.90
2022-11-04T14:56:24.195Z,99.90
2022-11-04T14:59:03.822Z,99.90
2022-11-04T15:01:35.556Z,99.90
2022-11-04T15:04:27.044Z,99.90
2022-11-04T15:07:22.655Z,99.90
2022-11-04T15:09:50.371Z,99.90
2022-11-04T15:12:38.825Z,99.90
2022-11-04T15:15:30.477Z,99.90
2022-11-04T15:18:08.037Z,99.90
2022-11-04T15:20:40.391Z,99.90
2022-11-04T15:23:13.372Z,99.90
2022-11-04T15:25:50.225Z,99.90
2022-11-04T15:28:34.562Z,99.90
2022-11-04T15:31:13.733Z,99.90
2022-11-04T15:33:46.130Z,99.90
2022-11-04T15:36:20.089Z,99.90
2022-11-04T15:38:54.165Z,99.90
2022-11-04T15:41:41.871Z,99.90
2022-11-04T15:44:24.862Z,99.90
2022-11-04T15:46:57.347Z,99.90
2022-11-04T15:49:32.462Z,99.90
2022-11-04T15:52:08.372Z,99.90
2022-11-04T15:54:37.894Z,99.90
2022-11-04T15:57:16.533Z,99.90
2022-11-04T15:59:55.658Z,99.90
2022-11-04T16:02:32.937Z,99.90
2022-11-04T16:05:21.222Z,99.90
2022-11-04T16:07:53.049Z,99.90
2022-11-04T16:10:35.049Z,99.90
2022-11-04T16:13:36.028Z,99.90
2022-11-04T16:16:24.702Z,99.90
2022-11-04T16:18:59.069Z,99.90
2022-11-04T16:21:31.596Z,99.90
2022-11-04T16:24:29.867Z,99.90
2022-11-04T16:26:57.828Z,99.90
2022-11-04T16:29:31.101Z,99.90
2022-11-04T16:32:36.304Z,99.90
2022-11-04T16:35:13.649Z,99.90
2022-11-04T16:37:40.687Z,99.90
2022-11-04T16:40:08.743Z,99.90
2022-11-04T16:42:36.159Z,99.90
2022-11-04T16:45:04.895Z,99.90
2022-11-04T16:47:35.506Z,99.90
2022-11-04T16:50:03.013Z,99.90
2022-11-04T16:52:31.165Z,99.90
2022-11-04T16:54:58.471Z,99.90
2022-11-04T16:57:25.898Z,99.90
2022-11-04T16:59:53.329Z,99.90
2022-11-04T17:02:31.427Z,99.90
2022-11-04T17:04:59.054Z,99.90
2022-11-04T17:07:40.657Z,99.90
2022-11-04T17:10:19.525Z,99.90
2022-11-04T17:12:47.058Z,99.90
2022-11-04T17:15:15.582Z,99.90
2022-11-04T17:17:43.180Z,99.90
2022-11-04T17:20:17.617Z,99.90
2022-11-04T17:22:45.189Z,99.90
2022-11-04T17:25:23.849Z,99.90
2022-11-04T17:27:50.935Z,99.90
2022-11-04T17:30:19.243Z,99.90
2022-11-04T17:32:46.842Z,99.90
2022-11-04T17:35:14.914Z,99.90
2022-11-04T17:37:42.390Z,99.90
2022-11-04T17:40:14.914Z,99.90
2022-11-04T17:43:00.555Z,99.90
2022-11-04T17:45:27.735Z,99.90
2022-11-04T17:47:54.808Z,99.90
2022-11-04T17:50:22.073Z,99.90
2022-11-04T17:52:49.537Z,99.90
2022-11-04T17:55:18.893Z,99.90
2022-11-04T17:57:48.998Z,99.90
2022-11-04T18:00:16.489Z,99.90
2022-11-04T18:02:43.659Z,99.90
2022-11-04T18:05:10.807Z,99.90
2022-11-04T18:07:44.312Z,99.90
2022-11-04T18:10:11.592Z,99.90
2022-11-04T18:12:38.704Z,99.90
2022-11-04T18:15:11.919Z,99.90
2022-11-04T18:17:45.760Z,99.90
2022-11-04T18:20:17.628Z,99.90
2022-11-04T18:22:44.768Z,99.90
2022-11-04T18:25:12.658Z,99.90
2022-11-04T18:27:39.835Z,99.90
2022-11-04T18:30:07.650Z,99.90
2022-11-04T18:32:34.866Z,99.90
2022-11-04T18:35:01.990Z,99.90
2022-11-04T18:37:29.375Z,99.90
2022-11-04T18:39:56.379Z,99.90
2022-11-04T18:42:23.447Z,99.90
2022-11-04T18:44:50.560Z,99.90
2022-11-04T18:47:20.198Z,99.90
2022-11-04T18:49:48.076Z,99.90
2022-11-04T18:52:15.168Z,99.90
2022-11-04T18:54:46.186Z,99.90
2022-11-04T18:57:13.267Z,99.90
2022-11-04T18:59:40.384Z,99.90
2022-11-04T19:02:20.756Z,99.90
2022-11-04T19:04:47.949Z,99.90
2022-11-04T19:07:15.560Z,99.90
2022-11-04T19:09:47.799Z,99.90
2022-11-04T19:12:34.327Z,99.90
2022-11-04T19:15:01.511Z,99.90
2022-11-04T19:17:28.545Z,99.90
2022-11-04T19:19:55.619Z,99.90
2022-11-04T19:22:22.671Z,99.90
2022-11-04T19:24:49.702Z,99.90
2022-11-04T19:27:17.996Z,99.90
2022-11-04T19:29:45.186Z,99.90
2022-11-04T19:32:14.245Z,99.90
2022-11-04T19:34:42.424Z,99.90
2022-11-04T19:37:10.700Z,99.90
2022-11-04T19:39:38.077Z,99.90
2022-11-04T19:42:24.238Z,99.90
2022-11-04T19:44:51.534Z,99.90
2022-11-04T19:47:18.528Z,99.90
2022-11-04T19:49:45.584Z,99.90
2022-11-04T19:52:12.636Z,99.90
2022-11-04T19:54:40.036Z,99.90
2022-11-04T19:57:07.175Z,99.90
2022-11-04T19:59:34.296Z,99.90
2022-11-04T20:02:01.420Z,99.90
2022-11-04T20:04:28.583Z,99.90
2022-11-04T20:06:55.767Z,99.90
2022-11-04T20:09:22.785Z,99.90
2022-11-04T20:12:08.249Z,99.90
2022-11-04T20:14:35.328Z,99.90
2022-11-04T20:17:03.024Z,99.90
2022-11-04T20:19:30.141Z,99.90
2022-11-04T20:21:57.165Z,99.90
2022-11-04T20:24:25.334Z,99.90
2022-11-04T20:26:52.544Z,99.90
2022-11-04T20:29:19.597Z,99.90
2022-11-04T20:31:46.969Z,99.90
2022-11-04T20:34:15.252Z,99.90
2022-11-04T20:36:42.619Z,99.90
2022-11-04T20:39:15.605Z,99.90
2022-11-04T20:41:43.551Z,99.90
2022-11-04T20:44:12.368Z,99.90
2022-11-04T20:46:40.177Z,99.90
2022-11-04T20:49:07.950Z,99.90
2022-11-04T20:51:38.391Z,99.90
2022-11-04T20:54:07.316Z,99.90
2022-11-04T20:56:37.022Z,99.90
2022-11-04T20:59:06.099Z,99.90
2022-11-04T21:01:35.343Z,99.90
2022-11-04T21:04:15.149Z,99.90
2022-11-04T21:06:42.692Z,99.90
2022-11-04T21:09:12.474Z,99.90
2022-11-04T21:11:39.983Z,99.90
2022-11-04T21:14:08.450Z,99.90
2022-11-04T21:16:36.051Z,99.90
2022-11-04T21:19:03.927Z,99.90
2022-11-04T21:21:30.947Z,99.90
2022-11-04T21:23:59.245Z,99.90
2022-11-04T21:26:29.501Z,99.90
2022-11-04T21:28:58.187Z,99.90
2022-11-04T21:31:25.717Z,99.90
2022-11-04T21:33:53.326Z,99.90
2022-11-04T21:36:22.512Z,99.90
2022-11-04T21:38:50.017Z,99.90
2022-11-04T21:41:22.371Z,99.90
2022-11-04T21:44:01.336Z,99.90
2022-11-04T21:46:30.572Z,99.90
2022-11-04T21:48:58.815Z,99.90
2022-11-04T21:51:29.278Z,99.90
2022-11-04T21:54:00.206Z,99.90
2022-11-04T21:56:33.499Z,99.90
2022-11-04T21:59:00.729Z,99.90
2022-11-04T22:01:29.252Z,99.90
2022-11-04T22:04:00.971Z,99.90
2022-11-04T22:06:34.019Z,99.90
2022-11-04T22:09:04.041Z,99.90
2022-11-04T22:11:32.571Z,99.90
2022-11-04T22:14:01.941Z,99.90
2022-11-04T22:16:31.877Z,99.90
2022-11-04T22:19:04.309Z,99.90
2022-11-04T22:21:32.203Z,99.90
2022-11-04T22:24:00.042Z,99.90
2022-11-04T22:26:29.381Z,99.90
2022-11-04T22:28:56.955Z,99.90
2022-11-04T22:31:26.940Z,99.90
2022-11-04T22:33:54.461Z,99.90
2022-11-04T22:36:23.358Z,99.90
2022-11-04T22:38:50.827Z,99.90
2022-11-04T22:41:29.413Z,99.90
2022-11-04T22:43:57.195Z,99.90
2022-11-04T22:46:28.602Z,99.90
2022-11-04T22:48:56.196Z,99.90
2022-11-04T22:51:23.508Z,99.90
2022-11-04T22:54:01.375Z,99.90
2022-11-04T22:56:30.373Z,99.90
2022-11-04T22:58:57.592Z,99.90
2022-11-04T23:01:26.224Z,99.90
2022-11-04T23:03:53.827Z,99.90
2022-11-04T23:06:21.298Z,99.90
2022-11-04T23:08:48.363Z,99.90
2022-11-04T23:11:39.523Z,99.90
2022-11-04T23:14:25.214Z,99.90
2022-11-04T23:17:10.845Z,99.90
2022-11-04T23:19:38.869Z,99.90
2022-11-04T23:22:25.732Z,99.90
2022-11-04T23:25:11.677Z,99.90
2022-11-04T23:28:06.554Z,99.90
2022-11-04T23:30:36.289Z,99.90
2022-11-04T23:33:05.915Z,99.90
2022-11-04T23:35:57.162Z,99.90
2022-11-04T23:38:25.233Z,99.90
2022-11-04T23:41:14.479Z,99.90
2022-11-04T23:43:41.656Z,99.90
2022-11-04T23:46:27.339Z,99.90
2022-11-04T23:49:26.587Z,99.90
2022-11-04T23:52:12.347Z,99.90
2022-11-04T23:54:58.357Z,99.90
2022-11-04T23:57:44.300Z,99.90
